sensor_id;sensor_type;location;lat;lon;timestamp;P1;durP1;ratioP1;P2;durP2;ratioP2
6394;SDS011;3230;42.588;23.358;2024-01-30T00:02:16;4.77;;;2.77;;
6394;SDS011;3230;42.588;23.358;2024-01-30T00:04:41;6.47;;;2.93;;
6394;SDS011;3230;42.588;23.358;2024-01-30T00:07:07;6.10;;;2.80;;
6394;SDS011;3230;42.588;23.358;2024-01-30T00:09:32;4.93;;;2.70;;
6394;SDS011;3230;42.588;23.358;2024-01-30T00:11:58;6.60;;;2.90;;
6394;SDS011;3230;42.588;23.358;2024-01-30T00:14:23;4.97;;;2.57;;
6394;SDS011;3230;42.588;23.358;2024-01-30T00:16:50;6.30;;;2.77;;
6394;SDS011;3230;42.588;23.358;2024-01-30T00:19:16;8.20;;;4.00;;
6394;SDS011;3230;42.588;23.358;2024-01-30T00:21:41;5.90;;;2.80;;
6394;SDS011;3230;42.588;23.358;2024-01-30T00:24:07;4.57;;;2.67;;
6394;SDS011;3230;42.588;23.358;2024-01-30T00:26:32;5.20;;;2.90;;
6394;SDS011;3230;42.588;23.358;2024-01-30T00:28:58;2.90;;;2.13;;
6394;SDS011;3230;42.588;23.358;2024-01-30T00:31:24;6.13;;;2.50;;
6394;SDS011;3230;42.588;23.358;2024-01-30T00:33:49;4.23;;;2.87;;
6394;SDS011;3230;42.588;23.358;2024-01-30T00:36:14;6.77;;;3.13;;
6394;SDS011;3230;42.588;23.358;2024-01-30T00:38:40;8.40;;;3.40;;
6394;SDS011;3230;42.588;23.358;2024-01-30T00:41:06;8.13;;;3.47;;
6394;SDS011;3230;42.588;23.358;2024-01-30T00:43:32;6.40;;;3.80;;
6394;SDS011;3230;42.588;23.358;2024-01-30T00:45:58;4.40;;;2.60;;
6394;SDS011;3230;42.588;23.358;2024-01-30T00:48:24;5.93;;;2.75;;
6394;SDS011;3230;42.588;23.358;2024-01-30T00:50:49;3.77;;;2.13;;
6394;SDS011;3230;42.588;23.358;2024-01-30T00:53:15;5.10;;;2.30;;
6394;SDS011;3230;42.588;23.358;2024-01-30T00:55:40;2.60;;;2.20;;
6394;SDS011;3230;42.588;23.358;2024-01-30T00:58:06;3.27;;;2.20;;
6394;SDS011;3230;42.588;23.358;2024-01-30T01:00:32;3.37;;;2.80;;
6394;SDS011;3230;42.588;23.358;2024-01-30T01:03:01;7.05;;;2.70;;
6394;SDS011;3230;42.588;23.358;2024-01-30T01:05:26;6.93;;;3.17;;
6394;SDS011;3230;42.588;23.358;2024-01-30T01:07:52;2.90;;;2.00;;
6394;SDS011;3230;42.588;23.358;2024-01-30T01:10:17;4.10;;;2.80;;
6394;SDS011;3230;42.588;23.358;2024-01-30T01:12:43;4.63;;;2.67;;
6394;SDS011;3230;42.588;23.358;2024-01-30T01:15:13;3.60;;;2.35;;
6394;SDS011;3230;42.588;23.358;2024-01-30T01:17:38;2.80;;;1.90;;
6394;SDS011;3230;42.588;23.358;2024-01-30T01:20:04;2.30;;;1.40;;
6394;SDS011;3230;42.588;23.358;2024-01-30T01:22:31;1.80;;;1.70;;
6394;SDS011;3230;42.588;23.358;2024-01-30T01:24:57;3.40;;;2.15;;
6394;SDS011;3230;42.588;23.358;2024-01-30T01:27:23;4.03;;;2.40;;
6394;SDS011;3230;42.588;23.358;2024-01-30T01:29:48;3.33;;;2.13;;
6394;SDS011;3230;42.588;23.358;2024-01-30T01:32:14;3.77;;;1.90;;
6394;SDS011;3230;42.588;23.358;2024-01-30T01:34:39;2.37;;;1.60;;
6394;SDS011;3230;42.588;23.358;2024-01-30T01:37:04;1.77;;;1.50;;
6394;SDS011;3230;42.588;23.358;2024-01-30T01:39:30;2.30;;;1.50;;
6394;SDS011;3230;42.588;23.358;2024-01-30T01:41:56;1.77;;;1.40;;
6394;SDS011;3230;42.588;23.358;2024-01-30T01:44:21;2.10;;;1.60;;
6394;SDS011;3230;42.588;23.358;2024-01-30T01:46:46;2.03;;;1.30;;
6394;SDS011;3230;42.588;23.358;2024-01-30T01:49:12;1.70;;;1.50;;
6394;SDS011;3230;42.588;23.358;2024-01-30T01:51:39;1.50;;;1.40;;
6394;SDS011;3230;42.588;23.358;2024-01-30T01:54:06;3.97;;;1.65;;
6394;SDS011;3230;42.588;23.358;2024-01-30T01:56:32;1.85;;;1.55;;
6394;SDS011;3230;42.588;23.358;2024-01-30T01:59:04;2.80;;;1.55;;
6394;SDS011;3230;42.588;23.358;2024-01-30T02:01:32;2.63;;;1.58;;
6394;SDS011;3230;42.588;23.358;2024-01-30T02:03:59;2.00;;;1.38;;
6394;SDS011;3230;42.588;23.358;2024-01-30T02:06:24;1.00;;;0.90;;
6394;SDS011;3230;42.588;23.358;2024-01-30T02:08:50;1.40;;;1.30;;
6394;SDS011;3230;42.588;23.358;2024-01-30T02:11:16;1.40;;;1.30;;
6394;SDS011;3230;42.588;23.358;2024-01-30T02:13:41;1.33;;;1.23;;
6394;SDS011;3230;42.588;23.358;2024-01-30T02:16:07;1.53;;;1.40;;
6394;SDS011;3230;42.588;23.358;2024-01-30T02:18:32;1.43;;;1.10;;
6394;SDS011;3230;42.588;23.358;2024-01-30T02:20:58;3.40;;;1.57;;
6394;SDS011;3230;42.588;23.358;2024-01-30T02:23:26;3.30;;;1.92;;
6394;SDS011;3230;42.588;23.358;2024-01-30T02:25:52;2.60;;;1.37;;
6394;SDS011;3230;42.588;23.358;2024-01-30T02:28:18;2.43;;;1.57;;
6394;SDS011;3230;42.588;23.358;2024-01-30T02:30:45;1.73;;;1.40;;
6394;SDS011;3230;42.588;23.358;2024-01-30T02:33:11;2.10;;;1.40;;
6394;SDS011;3230;42.588;23.358;2024-01-30T02:35:37;1.70;;;1.60;;
6394;SDS011;3230;42.588;23.358;2024-01-30T02:38:03;1.40;;;1.20;;
6394;SDS011;3230;42.588;23.358;2024-01-30T02:40:29;1.95;;;1.48;;
6394;SDS011;3230;42.588;23.358;2024-01-30T02:42:54;1.30;;;1.27;;
6394;SDS011;3230;42.588;23.358;2024-01-30T02:45:20;3.37;;;2.00;;
6394;SDS011;3230;42.588;23.358;2024-01-30T02:47:45;3.13;;;1.80;;
6394;SDS011;3230;42.588;23.358;2024-01-30T02:50:11;1.60;;;1.50;;
6394;SDS011;3230;42.588;23.358;2024-01-30T02:52:36;2.53;;;1.60;;
6394;SDS011;3230;42.588;23.358;2024-01-30T02:55:02;2.20;;;1.57;;
6394;SDS011;3230;42.588;23.358;2024-01-30T02:57:28;3.90;;;1.80;;
6394;SDS011;3230;42.588;23.358;2024-01-30T02:59:53;2.22;;;2.05;;
6394;SDS011;3230;42.588;23.358;2024-01-30T03:02:19;2.23;;;2.00;;
6394;SDS011;3230;42.588;23.358;2024-01-30T03:04:45;4.80;;;1.90;;
6394;SDS011;3230;42.588;23.358;2024-01-30T03:07:10;4.30;;;2.20;;
6394;SDS011;3230;42.588;23.358;2024-01-30T03:09:36;3.40;;;2.40;;
6394;SDS011;3230;42.588;23.358;2024-01-30T03:12:02;3.33;;;1.93;;
6394;SDS011;3230;42.588;23.358;2024-01-30T03:14:30;3.00;;;2.10;;
6394;SDS011;3230;42.588;23.358;2024-01-30T03:16:56;1.92;;;1.73;;
6394;SDS011;3230;42.588;23.358;2024-01-30T03:19:22;2.50;;;1.93;;
6394;SDS011;3230;42.588;23.358;2024-01-30T03:21:48;2.70;;;2.23;;
6394;SDS011;3230;42.588;23.358;2024-01-30T03:24:13;2.73;;;1.67;;
6394;SDS011;3230;42.588;23.358;2024-01-30T03:26:39;2.67;;;1.93;;
6394;SDS011;3230;42.588;23.358;2024-01-30T03:29:04;2.23;;;1.90;;
6394;SDS011;3230;42.588;23.358;2024-01-30T03:31:30;2.10;;;1.83;;
6394;SDS011;3230;42.588;23.358;2024-01-30T03:33:55;1.70;;;1.60;;
6394;SDS011;3230;42.588;23.358;2024-01-30T03:36:20;1.50;;;1.40;;
6394;SDS011;3230;42.588;23.358;2024-01-30T03:38:46;2.10;;;1.73;;
6394;SDS011;3230;42.588;23.358;2024-01-30T03:41:11;2.10;;;1.57;;
6394;SDS011;3230;42.588;23.358;2024-01-30T03:43:37;2.27;;;1.57;;
6394;SDS011;3230;42.588;23.358;2024-01-30T03:46:02;2.50;;;1.80;;
6394;SDS011;3230;42.588;23.358;2024-01-30T03:48:28;6.03;;;2.00;;
6394;SDS011;3230;42.588;23.358;2024-01-30T03:50:54;2.33;;;1.70;;
6394;SDS011;3230;42.588;23.358;2024-01-30T03:53:19;2.70;;;1.90;;
6394;SDS011;3230;42.588;23.358;2024-01-30T03:55:45;2.60;;;1.70;;
6394;SDS011;3230;42.588;23.358;2024-01-30T03:58:10;1.50;;;1.37;;
6394;SDS011;3230;42.588;23.358;2024-01-30T04:00:36;1.43;;;1.33;;
6394;SDS011;3230;42.588;23.358;2024-01-30T04:03:01;3.17;;;1.57;;
6394;SDS011;3230;42.588;23.358;2024-01-30T04:05:27;1.30;;;1.30;;
6394;SDS011;3230;42.588;23.358;2024-01-30T04:07:53;1.30;;;1.20;;
6394;SDS011;3230;42.588;23.358;2024-01-30T04:10:18;1.87;;;1.30;;
6394;SDS011;3230;42.588;23.358;2024-01-30T04:12:43;2.70;;;1.77;;
6394;SDS011;3230;42.588;23.358;2024-01-30T04:15:09;1.33;;;1.20;;
6394;SDS011;3230;42.588;23.358;2024-01-30T04:17:34;1.53;;;1.10;;
6394;SDS011;3230;42.588;23.358;2024-01-30T04:20:00;2.03;;;1.37;;
6394;SDS011;3230;42.588;23.358;2024-01-30T04:22:25;1.80;;;1.40;;
6394;SDS011;3230;42.588;23.358;2024-01-30T04:24:50;2.63;;;1.47;;
6394;SDS011;3230;42.588;23.358;2024-01-30T04:27:16;1.70;;;1.60;;
6394;SDS011;3230;42.588;23.358;2024-01-30T04:29:42;5.33;;;1.80;;
6394;SDS011;3230;42.588;23.358;2024-01-30T04:32:07;1.50;;;1.40;;
6394;SDS011;3230;42.588;23.358;2024-01-30T04:34:34;3.70;;;1.60;;
6394;SDS011;3230;42.588;23.358;2024-01-30T04:37:01;1.85;;;1.30;;
6394;SDS011;3230;42.588;23.358;2024-01-30T04:39:27;1.33;;;1.23;;
6394;SDS011;3230;42.588;23.358;2024-01-30T04:41:52;2.23;;;1.57;;
6394;SDS011;3230;42.588;23.358;2024-01-30T04:44:17;3.50;;;2.20;;
6394;SDS011;3230;42.588;23.358;2024-01-30T04:46:43;5.57;;;1.90;;
6394;SDS011;3230;42.588;23.358;2024-01-30T04:49:08;2.50;;;1.40;;
6394;SDS011;3230;42.588;23.358;2024-01-30T04:51:33;2.43;;;1.83;;
6394;SDS011;3230;42.588;23.358;2024-01-30T04:54:05;1.50;;;1.35;;
6394;SDS011;3230;42.588;23.358;2024-01-30T04:56:31;1.60;;;1.50;;
6394;SDS011;3230;42.588;23.358;2024-01-30T04:58:56;1.30;;;1.20;;
6394;SDS011;3230;42.588;23.358;2024-01-30T05:01:22;1.93;;;1.27;;
6394;SDS011;3230;42.588;23.358;2024-01-30T05:03:47;1.97;;;1.50;;
6394;SDS011;3230;42.588;23.358;2024-01-30T05:06:12;2.50;;;1.70;;
6394;SDS011;3230;42.588;23.358;2024-01-30T05:08:38;2.23;;;1.50;;
6394;SDS011;3230;42.588;23.358;2024-01-30T05:11:04;3.57;;;1.77;;
6394;SDS011;3230;42.588;23.358;2024-01-30T05:13:30;1.35;;;1.27;;
6394;SDS011;3230;42.588;23.358;2024-01-30T05:15:56;1.17;;;1.07;;
6394;SDS011;3230;42.588;23.358;2024-01-30T05:18:21;1.20;;;1.10;;
6394;SDS011;3230;42.588;23.358;2024-01-30T05:20:47;1.33;;;1.10;;
6394;SDS011;3230;42.588;23.358;2024-01-30T05:23:12;1.90;;;1.50;;
6394;SDS011;3230;42.588;23.358;2024-01-30T05:25:38;1.53;;;1.43;;
6394;SDS011;3230;42.588;23.358;2024-01-30T05:28:03;1.10;;;1.10;;
6394;SDS011;3230;42.588;23.358;2024-01-30T05:30:29;2.70;;;1.40;;
6394;SDS011;3230;42.588;23.358;2024-01-30T05:32:54;1.47;;;1.30;;
6394;SDS011;3230;42.588;23.358;2024-01-30T05:35:19;1.43;;;1.33;;
6394;SDS011;3230;42.588;23.358;2024-01-30T05:37:47;1.13;;;1.02;;
6394;SDS011;3230;42.588;23.358;2024-01-30T05:40:14;1.55;;;1.38;;
6394;SDS011;3230;42.588;23.358;2024-01-30T05:42:39;1.50;;;1.23;;
6394;SDS011;3230;42.588;23.358;2024-01-30T05:45:04;4.23;;;2.03;;
6394;SDS011;3230;42.588;23.358;2024-01-30T05:47:30;2.80;;;2.13;;
6394;SDS011;3230;42.588;23.358;2024-01-30T05:49:56;3.30;;;2.13;;
6394;SDS011;3230;42.588;23.358;2024-01-30T05:52:21;2.07;;;1.70;;
6394;SDS011;3230;42.588;23.358;2024-01-30T05:54:47;1.93;;;1.80;;
6394;SDS011;3230;42.588;23.358;2024-01-30T05:57:12;4.20;;;2.10;;
6394;SDS011;3230;42.588;23.358;2024-01-30T05:59:38;6.97;;;3.80;;
6394;SDS011;3230;42.588;23.358;2024-01-30T06:02:03;6.20;;;3.40;;
6394;SDS011;3230;42.588;23.358;2024-01-30T06:04:28;19.67;;;7.93;;
6394;SDS011;3230;42.588;23.358;2024-01-30T06:06:54;25.90;;;9.03;;
6394;SDS011;3230;42.588;23.358;2024-01-30T06:09:19;10.10;;;5.17;;
6394;SDS011;3230;42.588;23.358;2024-01-30T06:11:45;5.03;;;3.40;;
6394;SDS011;3230;42.588;23.358;2024-01-30T06:14:10;6.47;;;3.50;;
6394;SDS011;3230;42.588;23.358;2024-01-30T06:16:36;2.53;;;2.10;;
6394;SDS011;3230;42.588;23.358;2024-01-30T06:19:01;6.50;;;4.00;;
6394;SDS011;3230;42.588;23.358;2024-01-30T06:21:26;5.50;;;3.17;;
6394;SDS011;3230;42.588;23.358;2024-01-30T06:23:52;8.10;;;4.73;;
6394;SDS011;3230;42.588;23.358;2024-01-30T06:26:17;3.27;;;2.23;;
6394;SDS011;3230;42.588;23.358;2024-01-30T06:28:43;2.00;;;1.80;;
6394;SDS011;3230;42.588;23.358;2024-01-30T06:31:09;3.83;;;2.33;;
6394;SDS011;3230;42.588;23.358;2024-01-30T06:33:35;3.87;;;2.33;;
6394;SDS011;3230;42.588;23.358;2024-01-30T06:36:00;2.80;;;2.10;;
6394;SDS011;3230;42.588;23.358;2024-01-30T06:38:25;3.47;;;2.13;;
6394;SDS011;3230;42.588;23.358;2024-01-30T06:40:51;3.13;;;1.77;;
6394;SDS011;3230;42.588;23.358;2024-01-30T06:43:16;2.50;;;1.80;;
6394;SDS011;3230;42.588;23.358;2024-01-30T06:45:41;2.20;;;1.70;;
6394;SDS011;3230;42.588;23.358;2024-01-30T06:48:07;2.03;;;1.87;;
6394;SDS011;3230;42.588;23.358;2024-01-30T06:50:33;4.10;;;2.00;;
6394;SDS011;3230;42.588;23.358;2024-01-30T06:52:58;3.80;;;2.60;;
6394;SDS011;3230;42.588;23.358;2024-01-30T06:55:24;4.67;;;2.80;;
6394;SDS011;3230;42.588;23.358;2024-01-30T06:57:49;6.93;;;3.23;;
6394;SDS011;3230;42.588;23.358;2024-01-30T07:00:15;5.77;;;3.30;;
6394;SDS011;3230;42.588;23.358;2024-01-30T07:02:41;5.38;;;3.00;;
6394;SDS011;3230;42.588;23.358;2024-01-30T07:05:06;13.60;;;3.37;;
6394;SDS011;3230;42.588;23.358;2024-01-30T07:07:32;4.17;;;2.83;;
6394;SDS011;3230;42.588;23.358;2024-01-30T07:09:58;4.20;;;2.30;;
6394;SDS011;3230;42.588;23.358;2024-01-30T07:12:23;2.23;;;2.00;;
6394;SDS011;3230;42.588;23.358;2024-01-30T07:14:50;1.23;;;1.08;;
6394;SDS011;3230;42.588;23.358;2024-01-30T07:17:16;1.25;;;1.15;;
6394;SDS011;3230;42.588;23.358;2024-01-30T07:19:42;1.13;;;1.00;;
6394;SDS011;3230;42.588;23.358;2024-01-30T07:22:08;1.60;;;1.30;;
6394;SDS011;3230;42.588;23.358;2024-01-30T07:24:33;1.23;;;1.00;;
6394;SDS011;3230;42.588;23.358;2024-01-30T07:26:59;1.20;;;1.10;;
6394;SDS011;3230;42.588;23.358;2024-01-30T07:29:24;4.10;;;1.50;;
6394;SDS011;3230;42.588;23.358;2024-01-30T07:31:50;1.77;;;1.50;;
6394;SDS011;3230;42.588;23.358;2024-01-30T07:34:15;3.47;;;2.10;;
6394;SDS011;3230;42.588;23.358;2024-01-30T07:36:41;2.10;;;1.70;;
6394;SDS011;3230;42.588;23.358;2024-01-30T07:39:07;2.50;;;1.67;;
6394;SDS011;3230;42.588;23.358;2024-01-30T07:41:38;3.83;;;1.77;;
6394;SDS011;3230;42.588;23.358;2024-01-30T07:44:04;3.05;;;2.42;;
6394;SDS011;3230;42.588;23.358;2024-01-30T07:46:29;3.90;;;1.90;;
6394;SDS011;3230;42.588;23.358;2024-01-30T07:48:55;2.10;;;1.90;;
6394;SDS011;3230;42.588;23.358;2024-01-30T07:51:22;2.53;;;2.10;;
6394;SDS011;3230;42.588;23.358;2024-01-30T07:53:53;3.33;;;1.93;;
6394;SDS011;3230;42.588;23.358;2024-01-30T07:56:18;3.10;;;1.80;;
6394;SDS011;3230;42.588;23.358;2024-01-30T07:58:44;2.53;;;1.60;;
6394;SDS011;3230;42.588;23.358;2024-01-30T08:01:10;1.93;;;1.50;;
6394;SDS011;3230;42.588;23.358;2024-01-30T08:03:35;2.87;;;1.83;;
6394;SDS011;3230;42.588;23.358;2024-01-30T08:06:02;4.20;;;2.20;;
6394;SDS011;3230;42.588;23.358;2024-01-30T08:08:28;2.60;;;1.93;;
6394;SDS011;3230;42.588;23.358;2024-01-30T08:10:53;2.80;;;1.90;;
6394;SDS011;3230;42.588;23.358;2024-01-30T08:13:19;2.33;;;1.60;;
6394;SDS011;3230;42.588;23.358;2024-01-30T08:15:44;5.20;;;2.57;;
6394;SDS011;3230;42.588;23.358;2024-01-30T08:18:09;2.70;;;1.73;;
6394;SDS011;3230;42.588;23.358;2024-01-30T08:20:35;2.30;;;1.60;;
6394;SDS011;3230;42.588;23.358;2024-01-30T08:23:00;3.90;;;1.70;;
6394;SDS011;3230;42.588;23.358;2024-01-30T08:25:26;3.23;;;2.00;;
6394;SDS011;3230;42.588;23.358;2024-01-30T08:27:51;4.40;;;2.23;;
6394;SDS011;3230;42.588;23.358;2024-01-30T08:30:17;3.73;;;2.03;;
6394;SDS011;3230;42.588;23.358;2024-01-30T08:32:42;3.30;;;2.00;;
6394;SDS011;3230;42.588;23.358;2024-01-30T08:35:07;7.00;;;4.37;;
6394;SDS011;3230;42.588;23.358;2024-01-30T08:37:34;5.60;;;2.67;;
6394;SDS011;3230;42.588;23.358;2024-01-30T08:39:59;3.53;;;2.23;;
6394;SDS011;3230;42.588;23.358;2024-01-30T08:42:25;2.10;;;1.70;;
6394;SDS011;3230;42.588;23.358;2024-01-30T08:44:51;15.53;;;2.37;;
6394;SDS011;3230;42.588;23.358;2024-01-30T08:47:18;3.20;;;2.15;;
6394;SDS011;3230;42.588;23.358;2024-01-30T08:49:44;3.83;;;1.73;;
6394;SDS011;3230;42.588;23.358;2024-01-30T08:52:12;3.90;;;1.93;;
6394;SDS011;3230;42.588;23.358;2024-01-30T08:54:38;3.22;;;1.80;;
6394;SDS011;3230;42.588;23.358;2024-01-30T08:57:04;4.37;;;2.00;;
6394;SDS011;3230;42.588;23.358;2024-01-30T08:59:29;1.83;;;1.67;;
6394;SDS011;3230;42.588;23.358;2024-01-30T09:01:55;2.90;;;2.10;;
6394;SDS011;3230;42.588;23.358;2024-01-30T09:04:23;7.47;;;4.45;;
6394;SDS011;3230;42.588;23.358;2024-01-30T09:06:48;5.00;;;2.80;;
6394;SDS011;3230;42.588;23.358;2024-01-30T09:09:14;1.97;;;1.77;;
6394;SDS011;3230;42.588;23.358;2024-01-30T09:11:39;2.00;;;1.80;;
6394;SDS011;3230;42.588;23.358;2024-01-30T09:14:05;1.87;;;1.50;;
6394;SDS011;3230;42.588;23.358;2024-01-30T09:16:31;2.13;;;1.80;;
6394;SDS011;3230;42.588;23.358;2024-01-30T09:18:56;2.00;;;1.70;;
6394;SDS011;3230;42.588;23.358;2024-01-30T09:21:21;3.80;;;2.20;;
6394;SDS011;3230;42.588;23.358;2024-01-30T09:23:47;1.97;;;1.60;;
6394;SDS011;3230;42.588;23.358;2024-01-30T09:26:21;2.35;;;1.45;;
6394;SDS011;3230;42.588;23.358;2024-01-30T09:28:47;2.80;;;1.90;;
6394;SDS011;3230;42.588;23.358;2024-01-30T09:31:12;2.03;;;1.73;;
6394;SDS011;3230;42.588;23.358;2024-01-30T09:33:38;1.97;;;1.40;;
6394;SDS011;3230;42.588;23.358;2024-01-30T09:36:04;1.98;;;1.80;;
6394;SDS011;3230;42.588;23.358;2024-01-30T09:38:30;2.10;;;1.70;;
6394;SDS011;3230;42.588;23.358;2024-01-30T09:40:55;3.50;;;2.80;;
6394;SDS011;3230;42.588;23.358;2024-01-30T09:43:24;2.75;;;1.35;;
6394;SDS011;3230;42.588;23.358;2024-01-30T09:45:49;4.40;;;2.50;;
6394;SDS011;3230;42.588;23.358;2024-01-30T09:48:15;2.67;;;1.70;;
6394;SDS011;3230;42.588;23.358;2024-01-30T09:50:41;1.63;;;1.33;;
6394;SDS011;3230;42.588;23.358;2024-01-30T09:53:07;2.70;;;2.23;;
6394;SDS011;3230;42.588;23.358;2024-01-30T09:55:34;2.92;;;1.88;;
6394;SDS011;3230;42.588;23.358;2024-01-30T09:58:01;2.38;;;1.77;;
6394;SDS011;3230;42.588;23.358;2024-01-30T10:00:26;2.93;;;2.30;;
6394;SDS011;3230;42.588;23.358;2024-01-30T10:02:52;1.90;;;1.70;;
6394;SDS011;3230;42.588;23.358;2024-01-30T10:05:19;3.05;;;1.90;;
6394;SDS011;3230;42.588;23.358;2024-01-30T10:07:56;2.15;;;1.80;;
6394;SDS011;3230;42.588;23.358;2024-01-30T10:10:23;2.65;;;1.95;;
6394;SDS011;3230;42.588;23.358;2024-01-30T10:12:48;3.27;;;1.73;;
6394;SDS011;3230;42.588;23.358;2024-01-30T10:15:14;1.93;;;1.77;;
6394;SDS011;3230;42.588;23.358;2024-01-30T10:17:40;3.47;;;2.03;;
6394;SDS011;3230;42.588;23.358;2024-01-30T10:20:05;2.93;;;1.90;;
6394;SDS011;3230;42.588;23.358;2024-01-30T10:22:32;2.38;;;2.05;;
6394;SDS011;3230;42.588;23.358;2024-01-30T10:24:58;6.03;;;2.33;;
6394;SDS011;3230;42.588;23.358;2024-01-30T10:27:28;6.70;;;2.80;;
6394;SDS011;3230;42.588;23.358;2024-01-30T10:29:54;2.97;;;1.65;;
6394;SDS011;3230;42.588;23.358;2024-01-30T10:32:20;3.08;;;1.77;;
6394;SDS011;3230;42.588;23.358;2024-01-30T10:34:46;3.80;;;2.33;;
6394;SDS011;3230;42.588;23.358;2024-01-30T10:37:12;2.13;;;1.77;;
6394;SDS011;3230;42.588;23.358;2024-01-30T10:39:40;3.17;;;2.30;;
6394;SDS011;3230;42.588;23.358;2024-01-30T10:42:11;2.35;;;1.80;;
6394;SDS011;3230;42.588;23.358;2024-01-30T10:44:44;2.47;;;1.60;;
6394;SDS011;3230;42.588;23.358;2024-01-30T10:47:12;2.20;;;2.00;;
6394;SDS011;3230;42.588;23.358;2024-01-30T10:49:40;2.53;;;2.00;;
6394;SDS011;3230;42.588;23.358;2024-01-30T10:52:08;3.00;;;2.28;;
6394;SDS011;3230;42.588;23.358;2024-01-30T10:54:35;2.75;;;2.35;;
6394;SDS011;3230;42.588;23.358;2024-01-30T10:57:02;10.82;;;2.47;;
6394;SDS011;3230;42.588;23.358;2024-01-30T10:59:29;2.80;;;1.42;;
6394;SDS011;3230;42.588;23.358;2024-01-30T11:01:57;2.92;;;2.30;;
6394;SDS011;3230;42.588;23.358;2024-01-30T11:04:23;4.90;;;2.50;;
6394;SDS011;3230;42.588;23.358;2024-01-30T11:06:50;5.35;;;2.30;;
6394;SDS011;3230;42.588;23.358;2024-01-30T11:09:17;2.70;;;1.90;;
6394;SDS011;3230;42.588;23.358;2024-01-30T11:11:56;2.47;;;1.73;;
6394;SDS011;3230;42.588;23.358;2024-01-30T11:14:25;4.22;;;2.55;;
6394;SDS011;3230;42.588;23.358;2024-01-30T11:16:52;4.25;;;2.50;;
6394;SDS011;3230;42.588;23.358;2024-01-30T11:19:27;3.13;;;2.30;;
6394;SDS011;3230;42.588;23.358;2024-01-30T11:21:56;2.75;;;2.15;;
6394;SDS011;3230;42.588;23.358;2024-01-30T11:24:25;3.72;;;2.42;;
6394;SDS011;3230;42.588;23.358;2024-01-30T11:26:58;4.30;;;1.90;;
6394;SDS011;3230;42.588;23.358;2024-01-30T11:29:24;3.72;;;2.42;;
6394;SDS011;3230;42.588;23.358;2024-01-30T11:31:52;3.55;;;2.47;;
6394;SDS011;3230;42.588;23.358;2024-01-30T11:34:18;2.80;;;2.20;;
6394;SDS011;3230;42.588;23.358;2024-01-30T11:36:45;3.45;;;2.40;;
6394;SDS011;3230;42.588;23.358;2024-01-30T11:39:18;3.08;;;2.30;;
6394;SDS011;3230;42.588;23.358;2024-01-30T11:41:45;2.10;;;1.67;;
6394;SDS011;3230;42.588;23.358;2024-01-30T11:44:11;24.20;;;2.45;;
6394;SDS011;3230;42.588;23.358;2024-01-30T11:46:36;3.87;;;2.17;;
6394;SDS011;3230;42.588;23.358;2024-01-30T11:49:02;3.33;;;2.17;;
6394;SDS011;3230;42.588;23.358;2024-01-30T11:51:27;2.73;;;2.10;;
6394;SDS011;3230;42.588;23.358;2024-01-30T11:53:56;2.13;;;1.92;;
6394;SDS011;3230;42.588;23.358;2024-01-30T11:56:23;3.15;;;1.80;;
6394;SDS011;3230;42.588;23.358;2024-01-30T11:58:50;1.50;;;1.40;;
6394;SDS011;3230;42.588;23.358;2024-01-30T12:01:17;3.20;;;1.90;;
6394;SDS011;3230;42.588;23.358;2024-01-30T12:03:42;3.63;;;2.40;;
6394;SDS011;3230;42.588;23.358;2024-01-30T12:06:15;2.67;;;2.40;;
6394;SDS011;3230;42.588;23.358;2024-01-30T12:08:41;2.75;;;1.83;;
6394;SDS011;3230;42.588;23.358;2024-01-30T12:11:07;2.43;;;1.83;;
6394;SDS011;3230;42.588;23.358;2024-01-30T12:13:32;3.63;;;1.83;;
6394;SDS011;3230;42.588;23.358;2024-01-30T12:15:58;2.60;;;2.00;;
6394;SDS011;3230;42.588;23.358;2024-01-30T12:18:24;2.93;;;1.77;;
6394;SDS011;3230;42.588;23.358;2024-01-30T12:20:59;1.43;;;1.10;;
6394;SDS011;3230;42.588;23.358;2024-01-30T12:23:25;4.50;;;2.10;;
6394;SDS011;3230;42.588;23.358;2024-01-30T12:25:52;3.72;;;1.98;;
6394;SDS011;3230;42.588;23.358;2024-01-30T12:28:17;3.67;;;1.97;;
6394;SDS011;3230;42.588;23.358;2024-01-30T12:30:43;2.57;;;2.00;;
6394;SDS011;3230;42.588;23.358;2024-01-30T12:33:08;2.53;;;1.90;;
6394;SDS011;3230;42.588;23.358;2024-01-30T12:35:35;1.90;;;1.65;;
6394;SDS011;3230;42.588;23.358;2024-01-30T12:38:00;2.20;;;1.53;;
6394;SDS011;3230;42.588;23.358;2024-01-30T12:40:27;2.83;;;1.70;;
6394;SDS011;3230;42.588;23.358;2024-01-30T12:42:52;3.57;;;1.97;;
6394;SDS011;3230;42.588;23.358;2024-01-30T12:45:18;3.00;;;2.20;;
6394;SDS011;3230;42.588;23.358;2024-01-30T12:47:47;3.55;;;2.40;;
6394;SDS011;3230;42.588;23.358;2024-01-30T12:50:13;2.93;;;2.23;;
6394;SDS011;3230;42.588;23.358;2024-01-30T12:52:40;2.95;;;1.83;;
6394;SDS011;3230;42.588;23.358;2024-01-30T12:55:06;2.90;;;1.90;;
6394;SDS011;3230;42.588;23.358;2024-01-30T12:57:32;3.27;;;2.53;;
6394;SDS011;3230;42.588;23.358;2024-01-30T13:00:00;2.40;;;2.20;;
6394;SDS011;3230;42.588;23.358;2024-01-30T13:02:25;3.10;;;2.33;;
6394;SDS011;3230;42.588;23.358;2024-01-30T13:04:55;4.18;;;2.25;;
6394;SDS011;3230;42.588;23.358;2024-01-30T13:07:20;3.43;;;2.00;;
6394;SDS011;3230;42.588;23.358;2024-01-30T13:09:45;3.27;;;2.20;;
6394;SDS011;3230;42.588;23.358;2024-01-30T13:12:12;3.92;;;2.40;;
6394;SDS011;3230;42.588;23.358;2024-01-30T13:14:38;3.03;;;2.10;;
6394;SDS011;3230;42.588;23.358;2024-01-30T13:17:03;4.33;;;2.73;;
6394;SDS011;3230;42.588;23.358;2024-01-30T13:19:29;3.60;;;2.40;;
6394;SDS011;3230;42.588;23.358;2024-01-30T13:21:54;4.20;;;2.40;;
6394;SDS011;3230;42.588;23.358;2024-01-30T13:24:19;2.20;;;1.37;;
6394;SDS011;3230;42.588;23.358;2024-01-30T13:26:46;3.65;;;2.08;;
6394;SDS011;3230;42.588;23.358;2024-01-30T13:29:12;5.35;;;2.35;;
6394;SDS011;3230;42.588;23.358;2024-01-30T13:31:38;3.30;;;2.13;;
6394;SDS011;3230;42.588;23.358;2024-01-30T13:34:04;3.50;;;2.25;;
6394;SDS011;3230;42.588;23.358;2024-01-30T13:36:31;3.67;;;2.40;;
6394;SDS011;3230;42.588;23.358;2024-01-30T13:38:57;2.53;;;1.70;;
6394;SDS011;3230;42.588;23.358;2024-01-30T13:41:22;2.93;;;2.27;;
6394;SDS011;3230;42.588;23.358;2024-01-30T13:43:48;2.97;;;2.17;;
6394;SDS011;3230;42.588;23.358;2024-01-30T13:46:14;2.90;;;2.30;;
6394;SDS011;3230;42.588;23.358;2024-01-30T13:48:39;3.00;;;1.90;;
6394;SDS011;3230;42.588;23.358;2024-01-30T13:51:05;2.83;;;2.17;;
6394;SDS011;3230;42.588;23.358;2024-01-30T13:53:30;5.47;;;1.90;;
6394;SDS011;3230;42.588;23.358;2024-01-30T13:55:56;1.77;;;1.33;;
6394;SDS011;3230;42.588;23.358;2024-01-30T13:58:21;5.53;;;2.20;;
6394;SDS011;3230;42.588;23.358;2024-01-30T14:00:47;2.40;;;2.03;;
6394;SDS011;3230;42.588;23.358;2024-01-30T14:03:12;3.67;;;2.40;;
6394;SDS011;3230;42.588;23.358;2024-01-30T14:05:38;2.83;;;2.10;;
6394;SDS011;3230;42.588;23.358;2024-01-30T14:08:03;2.80;;;1.97;;
6394;SDS011;3230;42.588;23.358;2024-01-30T14:10:29;6.20;;;2.70;;
6394;SDS011;3230;42.588;23.358;2024-01-30T14:12:54;4.67;;;2.30;;
6394;SDS011;3230;42.588;23.358;2024-01-30T14:15:21;6.50;;;2.30;;
6394;SDS011;3230;42.588;23.358;2024-01-30T14:17:47;1.57;;;1.47;;
6394;SDS011;3230;42.588;23.358;2024-01-30T14:20:13;3.70;;;2.80;;
6394;SDS011;3230;42.588;23.358;2024-01-30T14:22:39;4.37;;;2.80;;
6394;SDS011;3230;42.588;23.358;2024-01-30T14:25:05;2.60;;;1.90;;
6394;SDS011;3230;42.588;23.358;2024-01-30T14:27:31;4.13;;;2.38;;
6394;SDS011;3230;42.588;23.358;2024-01-30T14:29:57;6.22;;;2.67;;
6394;SDS011;3230;42.588;23.358;2024-01-30T14:32:23;3.37;;;2.57;;
6394;SDS011;3230;42.588;23.358;2024-01-30T14:34:50;3.53;;;2.20;;
6394;SDS011;3230;42.588;23.358;2024-01-30T14:37:15;5.88;;;2.25;;
6394;SDS011;3230;42.588;23.358;2024-01-30T14:39:42;4.40;;;1.90;;
6394;SDS011;3230;42.588;23.358;2024-01-30T14:42:07;3.28;;;2.05;;
6394;SDS011;3230;42.588;23.358;2024-01-30T14:44:33;8.33;;;2.90;;
6394;SDS011;3230;42.588;23.358;2024-01-30T14:46:59;4.27;;;2.50;;
6394;SDS011;3230;42.588;23.358;2024-01-30T14:49:24;4.05;;;2.65;;
6394;SDS011;3230;42.588;23.358;2024-01-30T14:51:50;5.10;;;2.70;;
6394;SDS011;3230;42.588;23.358;2024-01-30T14:54:15;3.40;;;2.57;;